sensor_id;sensor_type;location;lat;lon;timestamp;P1;durP1;ratioP1;P2;durP2;ratioP2
59093;SDS011;44880;52.814;18.270;2023-12-20T00:03:41;11.90;;;6.50;;
59093;SDS011;44880;52.814;18.270;2023-12-20T00:06:13;12.90;;;5.80;;
59093;SDS011;44880;52.814;18.270;2023-12-20T00:08:45;13.60;;;7.20;;
59093;SDS011;44880;52.814;18.270;2023-12-20T00:13:47;11.90;;;7.10;;
59093;SDS011;44880;52.814;18.270;2023-12-20T00:16:18;12.00;;;6.50;;
59093;SDS011;44880;52.814;18.270;2023-12-20T00:18:50;13.20;;;7.20;;
59093;SDS011;44880;52.814;18.270;2023-12-20T00:21:21;11.60;;;6.60;;
59093;SDS011;44880;52.814;18.270;2023-12-20T00:23:53;14.20;;;7.70;;
59093;SDS011;44880;52.814;18.270;2023-12-20T00:26:25;11.80;;;6.60;;
59093;SDS011;44880;52.814;18.270;2023-12-20T00:28:57;13.00;;;6.60;;
59093;SDS011;44880;52.814;18.270;2023-12-20T00:31:28;11.40;;;6.00;;
59093;SDS011;44880;52.814;18.270;2023-12-20T00:34:00;11.80;;;6.20;;
59093;SDS011;44880;52.814;18.270;2023-12-20T00:36:32;11.70;;;6.70;;
59093;SDS011;44880;52.814;18.270;2023-12-20T00:39:04;12.60;;;6.90;;
59093;SDS011;44880;52.814;18.270;2023-12-20T00:44:05;13.00;;;7.20;;
59093;SDS011;44880;52.814;18.270;2023-12-20T00:46:37;12.70;;;7.20;;
59093;SDS011;44880;52.814;18.270;2023-12-20T00:49:09;10.80;;;6.40;;
59093;SDS011;44880;52.814;18.270;2023-12-20T00:51:40;12.30;;;6.30;;
59093;SDS011;44880;52.814;18.270;2023-12-20T00:54:12;12.00;;;6.40;;
59093;SDS011;44880;52.814;18.270;2023-12-20T00:59:13;9.90;;;5.50;;
59093;SDS011;44880;52.814;18.270;2023-12-20T01:04:17;11.40;;;6.70;;
59093;SDS011;44880;52.814;18.270;2023-12-20T01:06:49;13.80;;;7.20;;
59093;SDS011;44880;52.814;18.270;2023-12-20T01:09:21;12.30;;;6.50;;
59093;SDS011;44880;52.814;18.270;2023-12-20T01:11:54;12.20;;;6.10;;
59093;SDS011;44880;52.814;18.270;2023-12-20T01:14:26;11.10;;;5.80;;
59093;SDS011;44880;52.814;18.270;2023-12-20T01:16:57;12.30;;;6.50;;
59093;SDS011;44880;52.814;18.270;2023-12-20T01:19:29;10.10;;;4.90;;
59093;SDS011;44880;52.814;18.270;2023-12-20T01:22:01;10.10;;;5.30;;
59093;SDS011;44880;52.814;18.270;2023-12-20T01:24:33;9.30;;;4.30;;
59093;SDS011;44880;52.814;18.270;2023-12-20T01:27:05;10.80;;;5.80;;
59093;SDS011;44880;52.814;18.270;2023-12-20T01:29:36;10.00;;;4.90;;
59093;SDS011;44880;52.814;18.270;2023-12-20T01:32:08;11.80;;;5.70;;
59093;SDS011;44880;52.814;18.270;2023-12-20T01:34:40;10.90;;;5.20;;
59093;SDS011;44880;52.814;18.270;2023-12-20T01:37:11;10.90;;;5.30;;
59093;SDS011;44880;52.814;18.270;2023-12-20T01:39:43;12.90;;;6.40;;
59093;SDS011;44880;52.814;18.270;2023-12-20T01:42:14;11.10;;;5.60;;
59093;SDS011;44880;52.814;18.270;2023-12-20T01:44:47;9.80;;;4.90;;
59093;SDS011;44880;52.814;18.270;2023-12-20T01:47:18;10.70;;;4.70;;
59093;SDS011;44880;52.814;18.270;2023-12-20T01:52:20;11.40;;;5.70;;
59093;SDS011;44880;52.814;18.270;2023-12-20T01:54:52;12.70;;;6.90;;
59093;SDS011;44880;52.814;18.270;2023-12-20T01:57:29;12.10;;;6.20;;
59093;SDS011;44880;52.814;18.270;2023-12-20T02:02:33;13.00;;;6.50;;
59093;SDS011;44880;52.814;18.270;2023-12-20T02:05:06;11.30;;;5.40;;
59093;SDS011;44880;52.814;18.270;2023-12-20T02:07:38;10.20;;;5.50;;
59093;SDS011;44880;52.814;18.270;2023-12-20T02:10:09;9.90;;;4.80;;
59093;SDS011;44880;52.814;18.270;2023-12-20T02:15:12;9.60;;;4.60;;
59093;SDS011;44880;52.814;18.270;2023-12-20T02:17:45;10.20;;;5.20;;
59093;SDS011;44880;52.814;18.270;2023-12-20T02:20:16;10.10;;;4.50;;
59093;SDS011;44880;52.814;18.270;2023-12-20T02:22:48;10.50;;;5.10;;
59093;SDS011;44880;52.814;18.270;2023-12-20T02:25:19;13.70;;;5.80;;
59093;SDS011;44880;52.814;18.270;2023-12-20T02:27:51;13.10;;;5.60;;
59093;SDS011;44880;52.814;18.270;2023-12-20T02:30:23;10.60;;;4.80;;
59093;SDS011;44880;52.814;18.270;2023-12-20T02:32:55;12.20;;;5.00;;
59093;SDS011;44880;52.814;18.270;2023-12-20T02:35:28;11.40;;;5.00;;
59093;SDS011;44880;52.814;18.270;2023-12-20T02:37:59;9.40;;;4.60;;
59093;SDS011;44880;52.814;18.270;2023-12-20T02:40:31;10.90;;;5.00;;
59093;SDS011;44880;52.814;18.270;2023-12-20T02:43:02;10.10;;;4.50;;
59093;SDS011;44880;52.814;18.270;2023-12-20T02:45:34;11.40;;;4.90;;
59093;SDS011;44880;52.814;18.270;2023-12-20T02:48:06;10.90;;;5.00;;
59093;SDS011;44880;52.814;18.270;2023-12-20T02:50:38;10.30;;;4.60;;
59093;SDS011;44880;52.814;18.270;2023-12-20T02:53:10;9.60;;;4.50;;
59093;SDS011;44880;52.814;18.270;2023-12-20T02:55:42;9.40;;;4.10;;
59093;SDS011;44880;52.814;18.270;2023-12-20T02:58:13;8.20;;;3.40;;
59093;SDS011;44880;52.814;18.270;2023-12-20T03:00:46;8.50;;;4.00;;
59093;SDS011;44880;52.814;18.270;2023-12-20T03:03:17;9.50;;;4.30;;
59093;SDS011;44880;52.814;18.270;2023-12-20T03:05:50;9.30;;;4.10;;
59093;SDS011;44880;52.814;18.270;2023-12-20T03:10:52;10.50;;;4.70;;
59093;SDS011;44880;52.814;18.270;2023-12-20T03:13:23;11.50;;;5.00;;
59093;SDS011;44880;52.814;18.270;2023-12-20T03:15:55;9.00;;;4.40;;
59093;SDS011;44880;52.814;18.270;2023-12-20T03:18:27;9.40;;;4.00;;
59093;SDS011;44880;52.814;18.270;2023-12-20T03:20:58;8.60;;;3.70;;
59093;SDS011;44880;52.814;18.270;2023-12-20T03:23:30;9.30;;;4.10;;
59093;SDS011;44880;52.814;18.270;2023-12-20T03:26:02;9.80;;;4.50;;
59093;SDS011;44880;52.814;18.270;2023-12-20T03:28:35;9.80;;;3.80;;
59093;SDS011;44880;52.814;18.270;2023-12-20T03:31:07;9.70;;;3.90;;
59093;SDS011;44880;52.814;18.270;2023-12-20T03:33:40;9.70;;;4.30;;
59093;SDS011;44880;52.814;18.270;2023-12-20T03:36:12;11.70;;;5.50;;
59093;SDS011;44880;52.814;18.270;2023-12-20T03:38:44;8.50;;;4.00;;
59093;SDS011;44880;52.814;18.270;2023-12-20T03:41:15;10.40;;;4.30;;
59093;SDS011;44880;52.814;18.270;2023-12-20T03:43:47;9.90;;;4.40;;
59093;SDS011;44880;52.814;18.270;2023-12-20T03:46:18;9.50;;;3.90;;
59093;SDS011;44880;52.814;18.270;2023-12-20T03:48:50;12.70;;;5.30;;
59093;SDS011;44880;52.814;18.270;2023-12-20T03:51:22;10.80;;;4.80;;
59093;SDS011;44880;52.814;18.270;2023-12-20T03:53:53;9.60;;;4.30;;
59093;SDS011;44880;52.814;18.270;2023-12-20T03:56:25;10.10;;;4.90;;
59093;SDS011;44880;52.814;18.270;2023-12-20T03:58:56;10.70;;;5.20;;
59093;SDS011;44880;52.814;18.270;2023-12-20T04:01:28;9.60;;;4.40;;
59093;SDS011;44880;52.814;18.270;2023-12-20T04:04:00;9.20;;;3.90;;
59093;SDS011;44880;52.814;18.270;2023-12-20T04:06:31;8.60;;;4.00;;
59093;SDS011;44880;52.814;18.270;2023-12-20T04:09:03;9.00;;;3.80;;
59093;SDS011;44880;52.814;18.270;2023-12-20T04:11:37;9.60;;;4.10;;
59093;SDS011;44880;52.814;18.270;2023-12-20T04:16:39;8.90;;;4.00;;
59093;SDS011;44880;52.814;18.270;2023-12-20T04:19:11;9.40;;;4.20;;
59093;SDS011;44880;52.814;18.270;2023-12-20T04:21:42;9.00;;;4.30;;
59093;SDS011;44880;52.814;18.270;2023-12-20T04:24:14;8.70;;;3.70;;
59093;SDS011;44880;52.814;18.270;2023-12-20T04:26:46;7.80;;;3.10;;
59093;SDS011;44880;52.814;18.270;2023-12-20T04:29:17;8.40;;;3.60;;
59093;SDS011;44880;52.814;18.270;2023-12-20T04:31:49;9.50;;;4.20;;
59093;SDS011;44880;52.814;18.270;2023-12-20T04:34:21;10.40;;;4.20;;
59093;SDS011;44880;52.814;18.270;2023-12-20T04:36:54;9.60;;;4.30;;
59093;SDS011;44880;52.814;18.270;2023-12-20T04:39:26;11.00;;;4.40;;
59093;SDS011;44880;52.814;18.270;2023-12-20T04:41:57;10.10;;;4.50;;
59093;SDS011;44880;52.814;18.270;2023-12-20T04:44:29;9.60;;;4.00;;
59093;SDS011;44880;52.814;18.270;2023-12-20T04:47:00;8.80;;;3.80;;
59093;SDS011;44880;52.814;18.270;2023-12-20T04:49:32;9.70;;;4.10;;
59093;SDS011;44880;52.814;18.270;2023-12-20T04:52:04;8.90;;;4.00;;
59093;SDS011;44880;52.814;18.270;2023-12-20T04:54:36;9.70;;;4.40;;
59093;SDS011;44880;52.814;18.270;2023-12-20T04:57:07;10.00;;;3.90;;
59093;SDS011;44880;52.814;18.270;2023-12-20T04:59:39;8.50;;;3.20;;
59093;SDS011;44880;52.814;18.270;2023-12-20T05:02:11;9.00;;;4.40;;
59093;SDS011;44880;52.814;18.270;2023-12-20T05:04:42;7.50;;;3.20;;
59093;SDS011;44880;52.814;18.270;2023-12-20T05:07:14;8.70;;;3.60;;
59093;SDS011;44880;52.814;18.270;2023-12-20T05:09:46;9.90;;;4.30;;
59093;SDS011;44880;52.814;18.270;2023-12-20T05:12:17;8.00;;;3.50;;
59093;SDS011;44880;52.814;18.270;2023-12-20T05:14:49;9.90;;;4.10;;
59093;SDS011;44880;52.814;18.270;2023-12-20T05:17:21;9.50;;;3.70;;
59093;SDS011;44880;52.814;18.270;2023-12-20T05:19:52;8.10;;;3.30;;
59093;SDS011;44880;52.814;18.270;2023-12-20T05:22:24;8.40;;;3.30;;
59093;SDS011;44880;52.814;18.270;2023-12-20T05:24:57;8.60;;;3.30;;
59093;SDS011;44880;52.814;18.270;2023-12-20T05:27:28;7.90;;;3.40;;
59093;SDS011;44880;52.814;18.270;2023-12-20T05:30:00;9.00;;;3.30;;
59093;SDS011;44880;52.814;18.270;2023-12-20T05:32:32;7.90;;;3.40;;
59093;SDS011;44880;52.814;18.270;2023-12-20T05:35:04;8.30;;;3.90;;
59093;SDS011;44880;52.814;18.270;2023-12-20T05:37:36;8.50;;;3.50;;
59093;SDS011;44880;52.814;18.270;2023-12-20T05:40:09;8.90;;;3.70;;
59093;SDS011;44880;52.814;18.270;2023-12-20T05:42:41;9.80;;;4.40;;
59093;SDS011;44880;52.814;18.270;2023-12-20T05:47:44;10.00;;;4.60;;
59093;SDS011;44880;52.814;18.270;2023-12-20T05:50:16;10.10;;;4.20;;
59093;SDS011;44880;52.814;18.270;2023-12-20T05:55:18;10.50;;;4.50;;
59093;SDS011;44880;52.814;18.270;2023-12-20T05:57:51;8.90;;;3.80;;
59093;SDS011;44880;52.814;18.270;2023-12-20T06:00:22;10.50;;;4.00;;
59093;SDS011;44880;52.814;18.270;2023-12-20T06:02:54;9.60;;;3.90;;
59093;SDS011;44880;52.814;18.270;2023-12-20T06:05:26;9.50;;;4.40;;
59093;SDS011;44880;52.814;18.270;2023-12-20T06:07:58;11.20;;;5.20;;
59093;SDS011;44880;52.814;18.270;2023-12-20T06:10:31;9.40;;;4.30;;
59093;SDS011;44880;52.814;18.270;2023-12-20T06:13:03;9.50;;;4.30;;
59093;SDS011;44880;52.814;18.270;2023-12-20T06:15:35;12.10;;;5.40;;
59093;SDS011;44880;52.814;18.270;2023-12-20T06:18:06;9.80;;;4.40;;
59093;SDS011;44880;52.814;18.270;2023-12-20T06:20:38;10.90;;;4.70;;
59093;SDS011;44880;52.814;18.270;2023-12-20T06:23:10;11.80;;;5.20;;
59093;SDS011;44880;52.814;18.270;2023-12-20T06:25:41;11.50;;;6.20;;
59093;SDS011;44880;52.814;18.270;2023-12-20T06:28:13;12.10;;;6.10;;
59093;SDS011;44880;52.814;18.270;2023-12-20T06:30:45;11.10;;;5.70;;
59093;SDS011;44880;52.814;18.270;2023-12-20T06:33:18;10.00;;;5.30;;
59093;SDS011;44880;52.814;18.270;2023-12-20T06:35:50;12.00;;;5.20;;
59093;SDS011;44880;52.814;18.270;2023-12-20T06:38:22;12.30;;;5.80;;
59093;SDS011;44880;52.814;18.270;2023-12-20T06:43:25;14.00;;;7.20;;
59093;SDS011;44880;52.814;18.270;2023-12-20T06:45:57;13.70;;;7.20;;
59093;SDS011;44880;52.814;18.270;2023-12-20T06:48:29;14.20;;;7.20;;
59093;SDS011;44880;52.814;18.270;2023-12-20T06:51:01;13.20;;;7.20;;
59093;SDS011;44880;52.814;18.270;2023-12-20T06:56:03;11.20;;;5.40;;
59093;SDS011;44880;52.814;18.270;2023-12-20T06:58:36;12.00;;;5.90;;
59093;SDS011;44880;52.814;18.270;2023-12-20T07:01:12;11.00;;;5.20;;
59093;SDS011;44880;52.814;18.270;2023-12-20T07:03:44;11.20;;;5.60;;
59093;SDS011;44880;52.814;18.270;2023-12-20T07:06:16;11.40;;;5.60;;
59093;SDS011;44880;52.814;18.270;2023-12-20T07:08:47;11.50;;;5.80;;
59093;SDS011;44880;52.814;18.270;2023-12-20T07:11:19;11.20;;;5.70;;
59093;SDS011;44880;52.814;18.270;2023-12-20T07:13:51;13.20;;;6.60;;
59093;SDS011;44880;52.814;18.270;2023-12-20T07:16:23;13.80;;;6.00;;
59093;SDS011;44880;52.814;18.270;2023-12-20T07:18:55;10.90;;;5.00;;
59093;SDS011;44880;52.814;18.270;2023-12-20T07:21:26;10.80;;;5.40;;
59093;SDS011;44880;52.814;18.270;2023-12-20T07:23:58;11.10;;;5.00;;
59093;SDS011;44880;52.814;18.270;2023-12-20T07:26:30;10.80;;;5.20;;
59093;SDS011;44880;52.814;18.270;2023-12-20T07:29:02;12.70;;;5.80;;
59093;SDS011;44880;52.814;18.270;2023-12-20T07:31:35;12.40;;;5.20;;
59093;SDS011;44880;52.814;18.270;2023-12-20T07:34:06;13.20;;;6.50;;
59093;SDS011;44880;52.814;18.270;2023-12-20T07:39:08;12.50;;;6.10;;
59093;SDS011;44880;52.814;18.270;2023-12-20T07:41:40;12.00;;;5.80;;
59093;SDS011;44880;52.814;18.270;2023-12-20T07:44:12;11.30;;;5.70;;
59093;SDS011;44880;52.814;18.270;2023-12-20T07:49:13;11.70;;;5.00;;
59093;SDS011;44880;52.814;18.270;2023-12-20T07:51:45;10.90;;;4.90;;
59093;SDS011;44880;52.814;18.270;2023-12-20T07:54:18;10.60;;;5.10;;
59093;SDS011;44880;52.814;18.270;2023-12-20T07:56:50;11.30;;;5.10;;
59093;SDS011;44880;52.814;18.270;2023-12-20T07:59:21;11.90;;;4.90;;
59093;SDS011;44880;52.814;18.270;2023-12-20T08:01:53;10.20;;;4.90;;
59093;SDS011;44880;52.814;18.270;2023-12-20T08:04:26;11.40;;;5.10;;
59093;SDS011;44880;52.814;18.270;2023-12-20T08:06:57;10.80;;;4.60;;
59093;SDS011;44880;52.814;18.270;2023-12-20T08:09:31;11.30;;;4.80;;
59093;SDS011;44880;52.814;18.270;2023-12-20T08:12:05;9.50;;;4.20;;
59093;SDS011;44880;52.814;18.270;2023-12-20T08:14:37;12.10;;;5.20;;
59093;SDS011;44880;52.814;18.270;2023-12-20T08:17:09;11.30;;;5.70;;
59093;SDS011;44880;52.814;18.270;2023-12-20T08:19:44;11.60;;;5.50;;
59093;SDS011;44880;52.814;18.270;2023-12-20T08:22:16;11.90;;;5.40;;
59093;SDS011;44880;52.814;18.270;2023-12-20T08:24:48;11.30;;;4.90;;
59093;SDS011;44880;52.814;18.270;2023-12-20T08:27:19;11.60;;;5.40;;
59093;SDS011;44880;52.814;18.270;2023-12-20T08:29:51;12.40;;;6.30;;
59093;SDS011;44880;52.814;18.270;2023-12-20T08:32:26;10.70;;;5.00;;
59093;SDS011;44880;52.814;18.270;2023-12-20T08:34:58;9.80;;;4.40;;
59093;SDS011;44880;52.814;18.270;2023-12-20T08:37:31;11.20;;;5.00;;
59093;SDS011;44880;52.814;18.270;2023-12-20T08:40:05;11.20;;;5.10;;
59093;SDS011;44880;52.814;18.270;2023-12-20T08:42:38;10.00;;;5.00;;
59093;SDS011;44880;52.814;18.270;2023-12-20T08:45:10;11.50;;;6.10;;
59093;SDS011;44880;52.814;18.270;2023-12-20T08:47:42;12.30;;;6.20;;
59093;SDS011;44880;52.814;18.270;2023-12-20T08:50:14;13.50;;;6.50;;
59093;SDS011;44880;52.814;18.270;2023-12-20T08:52:46;13.80;;;5.70;;
59093;SDS011;44880;52.814;18.270;2023-12-20T08:55:18;12.40;;;6.00;;
59093;SDS011;44880;52.814;18.270;2023-12-20T08:57:50;11.80;;;6.60;;
59093;SDS011;44880;52.814;18.270;2023-12-20T09:02:55;12.80;;;6.30;;
59093;SDS011;44880;52.814;18.270;2023-12-20T09:05:27;13.30;;;6.50;;
59093;SDS011;44880;52.814;18.270;2023-12-20T09:08:00;14.20;;;6.70;;
59093;SDS011;44880;52.814;18.270;2023-12-20T09:10:32;15.00;;;6.70;;
59093;SDS011;44880;52.814;18.270;2023-12-20T09:13:05;13.40;;;6.10;;
59093;SDS011;44880;52.814;18.270;2023-12-20T09:15:38;12.30;;;5.80;;
59093;SDS011;44880;52.814;18.270;2023-12-20T09:18:10;12.00;;;5.30;;
59093;SDS011;44880;52.814;18.270;2023-12-20T09:20:44;12.20;;;5.20;;
59093;SDS011;44880;52.814;18.270;2023-12-20T09:23:18;10.70;;;6.10;;
59093;SDS011;44880;52.814;18.270;2023-12-20T09:25:49;12.80;;;6.10;;
59093;SDS011;44880;52.814;18.270;2023-12-20T09:28:28;11.60;;;5.10;;
59093;SDS011;44880;52.814;18.270;2023-12-20T09:31:05;10.30;;;4.70;;
59093;SDS011;44880;52.814;18.270;2023-12-20T09:33:37;9.50;;;4.60;;
59093;SDS011;44880;52.814;18.270;2023-12-20T09:36:09;12.00;;;6.60;;
59093;SDS011;44880;52.814;18.270;2023-12-20T09:38:49;13.10;;;5.80;;
59093;SDS011;44880;52.814;18.270;2023-12-20T09:41:26;14.00;;;6.30;;
59093;SDS011;44880;52.814;18.270;2023-12-20T09:44:02;10.50;;;5.50;;
59093;SDS011;44880;52.814;18.270;2023-12-20T09:46:40;13.70;;;5.50;;
59093;SDS011;44880;52.814;18.270;2023-12-20T09:49:15;10.30;;;4.70;;
59093;SDS011;44880;52.814;18.270;2023-12-20T09:51:49;11.50;;;4.60;;
59093;SDS011;44880;52.814;18.270;2023-12-20T09:54:23;10.50;;;4.20;;
59093;SDS011;44880;52.814;18.270;2023-12-20T09:57:00;14.20;;;5.40;;
59093;SDS011;44880;52.814;18.270;2023-12-20T09:59:32;10.00;;;4.40;;
59093;SDS011;44880;52.814;18.270;2023-12-20T10:02:04;10.70;;;5.10;;
59093;SDS011;44880;52.814;18.270;2023-12-20T10:04:42;11.70;;;5.10;;
59093;SDS011;44880;52.814;18.270;2023-12-20T10:07:17;11.30;;;4.40;;
59093;SDS011;44880;52.814;18.270;2023-12-20T10:09:51;11.10;;;4.60;;
59093;SDS011;44880;52.814;18.270;2023-12-20T10:12:25;9.20;;;4.20;;
59093;SDS011;44880;52.814;18.270;2023-12-20T10:14:58;9.70;;;4.20;;
59093;SDS011;44880;52.814;18.270;2023-12-20T10:17:29;8.50;;;4.00;;
59093;SDS011;44880;52.814;18.270;2023-12-20T10:20:01;8.90;;;4.00;;
59093;SDS011;44880;52.814;18.270;2023-12-20T10:22:38;9.40;;;4.00;;
59093;SDS011;44880;52.814;18.270;2023-12-20T10:25:16;11.40;;;4.20;;
59093;SDS011;44880;52.814;18.270;2023-12-20T10:27:49;8.80;;;3.90;;
59093;SDS011;44880;52.814;18.270;2023-12-20T10:30:37;9.10;;;4.10;;
59093;SDS011;44880;52.814;18.270;2023-12-20T10:33:10;11.00;;;4.70;;
59093;SDS011;44880;52.814;18.270;2023-12-20T10:35:42;11.50;;;4.70;;
59093;SDS011;44880;52.814;18.270;2023-12-20T10:38:13;10.40;;;4.30;;
59093;SDS011;44880;52.814;18.270;2023-12-20T10:40:46;9.60;;;4.10;;
59093;SDS011;44880;52.814;18.270;2023-12-20T10:43:18;9.50;;;4.40;;
59093;SDS011;44880;52.814;18.270;2023-12-20T10:48:20;9.30;;;4.00;;
59093;SDS011;44880;52.814;18.270;2023-12-20T10:50:57;10.30;;;3.70;;
59093;SDS011;44880;52.814;18.270;2023-12-20T10:53:29;9.50;;;3.30;;
59093;SDS011;44880;52.814;18.270;2023-12-20T10:56:01;9.60;;;3.10;;
59093;SDS011;44880;52.814;18.270;2023-12-20T10:58:34;10.10;;;3.70;;
59093;SDS011;44880;52.814;18.270;2023-12-20T11:01:08;10.20;;;3.20;;
59093;SDS011;44880;52.814;18.270;2023-12-20T11:03:42;9.10;;;2.40;;
59093;SDS011;44880;52.814;18.270;2023-12-20T11:06:20;9.60;;;2.90;;
59093;SDS011;44880;52.814;18.270;2023-12-20T11:09:03;9.70;;;3.30;;
59093;SDS011;44880;52.814;18.270;2023-12-20T11:11:50;7.90;;;2.40;;
59093;SDS011;44880;52.814;18.270;2023-12-20T11:14:38;10.20;;;3.10;;
59093;SDS011;44880;52.814;18.270;2023-12-20T11:17:14;9.10;;;2.80;;
59093;SDS011;44880;52.814;18.270;2023-12-20T11:22:30;10.70;;;3.20;;
59093;SDS011;44880;52.814;18.270;2023-12-20T11:25:04;11.50;;;4.20;;
59093;SDS011;44880;52.814;18.270;2023-12-20T11:27:41;9.60;;;3.20;;
59093;SDS011;44880;52.814;18.270;2023-12-20T11:30:14;11.00;;;3.90;;
59093;SDS011;44880;52.814;18.270;2023-12-20T11:32:47;10.20;;;3.40;;
59093;SDS011;44880;52.814;18.270;2023-12-20T11:35:19;12.80;;;4.50;;
59093;SDS011;44880;52.814;18.270;2023-12-20T11:37:52;9.10;;;3.00;;
59093;SDS011;44880;52.814;18.270;2023-12-20T11:40:28;7.50;;;2.50;;
59093;SDS011;44880;52.814;18.270;2023-12-20T11:43:05;8.50;;;2.40;;
59093;SDS011;44880;52.814;18.270;2023-12-20T11:45:37;11.10;;;2.60;;
59093;SDS011;44880;52.814;18.270;2023-12-20T11:48:09;10.30;;;3.10;;
59093;SDS011;44880;52.814;18.270;2023-12-20T11:50:42;9.00;;;3.20;;
59093;SDS011;44880;52.814;18.270;2023-12-20T11:53:14;8.10;;;2.70;;
59093;SDS011;44880;52.814;18.270;2023-12-20T11:55:48;10.50;;;2.80;;
59093;SDS011;44880;52.814;18.270;2023-12-20T11:58:20;12.70;;;3.80;;
59093;SDS011;44880;52.814;18.270;2023-12-20T12:03:32;13.80;;;3.60;;
59093;SDS011;44880;52.814;18.270;2023-12-20T12:06:05;12.10;;;4.40;;
59093;SDS011;44880;52.814;18.270;2023-12-20T12:08:37;14.20;;;3.70;;
59093;SDS011;44880;52.814;18.270;2023-12-20T12:11:13;8.60;;;3.20;;
59093;SDS011;44880;52.814;18.270;2023-12-20T12:16:18;9.30;;;2.90;;
59093;SDS011;44880;52.814;18.270;2023-12-20T12:18:56;10.90;;;3.40;;
59093;SDS011;44880;52.814;18.270;2023-12-20T12:21:28;9.20;;;3.50;;
59093;SDS011;44880;52.814;18.270;2023-12-20T12:24:08;9.70;;;3.50;;
59093;SDS011;44880;52.814;18.270;2023-12-20T12:26:49;11.80;;;4.20;;
59093;SDS011;44880;52.814;18.270;2023-12-20T12:29:21;11.10;;;3.50;;
59093;SDS011;44880;52.814;18.270;2023-12-20T12:31:53;9.10;;;3.30;;
59093;SDS011;44880;52.814;18.270;2023-12-20T12:34:26;10.00;;;2.80;;
59093;SDS011;44880;52.814;18.270;2023-12-20T12:37:19;10.80;;;3.70;;
59093;SDS011;44880;52.814;18.270;2023-12-20T12:39:54;10.90;;;3.80;;
59093;SDS011;44880;52.814;18.270;2023-12-20T12:42:34;10.80;;;3.20;;
59093;SDS011;44880;52.814;18.270;2023-12-20T12:45:07;11.20;;;3.50;;
59093;SDS011;44880;52.814;18.270;2023-12-20T12:47:40;10.70;;;3.80;;
59093;SDS011;44880;52.814;18.270;2023-12-20T12:50:13;10.30;;;3.40;;
59093;SDS011;44880;52.814;18.270;2023-12-20T12:52:50;10.90;;;3.40;;
59093;SDS011;44880;52.814;18.270;2023-12-20T12:55:22;8.30;;;2.70;;
59093;SDS011;44880;52.814;18.270;2023-12-20T12:57:54;10.60;;;3.60;;
59093;SDS011;44880;52.814;18.270;2023-12-20T13:00:27;9.40;;;3.00;;
59093;SDS011;44880;52.814;18.270;2023-12-20T13:03:10;9.50;;;3.00;;
59093;SDS011;44880;52.814;18.270;2023-12-20T13:05:42;8.90;;;2.90;;
59093;SDS011;44880;52.814;18.270;2023-12-20T13:08:17;9.20;;;2.70;;
59093;SDS011;44880;52.814;18.270;2023-12-20T13:10:53;8.00;;;2.70;;
59093;SDS011;44880;52.814;18.270;2023-12-20T13:13:29;8.90;;;2.70;;
59093;SDS011;44880;52.814;18.270;2023-12-20T13:16:00;8.80;;;3.10;;
59093;SDS011;44880;52.814;18.270;2023-12-20T13:18:34;6.20;;;2.50;;
59093;SDS011;44880;52.814;18.270;2023-12-20T13:21:10;8.50;;;2.70;;
59093;SDS011;44880;52.814;18.270;2023-12-20T13:23:42;9.30;;;2.90;;
59093;SDS011;44880;52.814;18.270;2023-12-20T13:26:25;8.90;;;2.80;;
59093;SDS011;44880;52.814;18.270;2023-12-20T13:29:03;8.80;;;3.10;;
59093;SDS011;44880;52.814;18.270;2023-12-20T13:34:06;11.50;;;4.50;;
59093;SDS011;44880;52.814;18.270;2023-12-20T13:39:08;11.10;;;3.40;;
59093;SDS011;44880;52.814;18.270;2023-12-20T13:41:40;9.20;;;3.40;;
59093;SDS011;44880;52.814;18.270;2023-12-20T13:44:12;9.60;;;3.80;;
59093;SDS011;44880;52.814;18.270;2023-12-20T13:46:43;13.40;;;6.60;;
59093;SDS011;44880;52.814;18.270;2023-12-20T13:49:18;11.60;;;4.00;;
59093;SDS011;44880;52.814;18.270;2023-12-20T13:51:53;8.80;;;3.50;;
59093;SDS011;44880;52.814;18.270;2023-12-20T13:54:26;9.00;;;3.30;;
59093;SDS011;44880;52.814;18.270;2023-12-20T13:56:57;11.80;;;3.20;;
59093;SDS011;44880;52.814;18.270;2023-12-20T13:59:31;9.50;;;3.70;;
59093;SDS011;44880;52.814;18.270;2023-12-20T14:04:33;11.30;;;4.30;;
59093;SDS011;44880;52.814;18.270;2023-12-20T14:07:07;12.80;;;4.80;;
59093;SDS011;44880;52.814;18.270;2023-12-20T14:12:13;12.10;;;3.30;;
59093;SDS011;44880;52.814;18.270;2023-12-20T14:14:47;11.00;;;3.50;;
59093;SDS011;44880;52.814;18.270;2023-12-20T14:17:21;9.10;;;4.00;;
59093;SDS011;44880;52.814;18.270;2023-12-20T14:19:53;9.60;;;3.90;;
59093;SDS011;44880;52.814;18.270;2023-12-20T14:22:24;12.50;;;4.50;;
59093;SDS011;44880;52.814;18.270;2023-12-20T14:24:57;10.40;;;3.40;;
59093;SDS011;44880;52.814;18.270;2023-12-20T14:27:29;10.60;;;3.60;;
59093;SDS011;44880;52.814;18.270;2023-12-20T14:30:01;10.40;;;3.90;;
59093;SDS011;44880;52.814;18.270;2023-12-20T14:32:34;10.90;;;4.30;;
59093;SDS011;44880;52.814;18.270;2023-12-20T14:35:08;13.90;;;4.40;;
59093;SDS011;44880;52.814;18.270;2023-12-20T14:37:40;13.40;;;4.30;;
59093;SDS011;44880;52.814;18.270;2023-12-20T14:40:13;12.90;;;4.60;;
59093;SDS011;44880;52.814;18.270;2023-12-20T14:42:45;11.20;;;4.10;;
59093;SDS011;44880;52.814;18.270;2023-12-20T14:47:47;12.40;;;4.50;;
59093;SDS011;44880;52.814;18.270;2023-12-20T14:50:20;8.90;;;4.10;;
59093;SDS011;44880;52.814;18.270;2023-12-20T14:55:23;11.70;;;4.70;;
59093;SDS011;44880;52.814;18.270;2023-12-20T14:57:57;12.20;;;4.40;;
59093;SDS011;44880;52.814;18.270;2023-12-20T15:00:29;14.40;;;6.00;;
59093;SDS011;44880;52.814;18.270;2023-12-20T15:03:02;13.10;;;4.20;;
59093;SDS011;44880;52.814;18.270;2023-12-20T15:05:35;12.40;;;4.80;;
59093;SDS011;44880;52.814;18.270;2023-12-20T15:08:08;10.90;;;4.30;;
59093;SDS011;44880;52.814;18.270;2023-12-20T15:13:09;11.40;;;4.10;;
59093;SDS011;44880;52.814;18.270;2023-12-20T15:15:41;11.80;;;4.10;;
59093;SDS011;44880;52.814;18.270;2023-12-20T15:18:13;11.40;;;4.20;;
59093;SDS011;44880;52.814;18.270;2023-12-20T15:20:45;11.30;;;3.90;;
59093;SDS011;44880;52.814;18.270;2023-12-20T15:23:16;12.60;;;4.00;;
59093;SDS011;44880;52.814;18.270;2023-12-20T15:25:50;11.10;;;3.90;;
59093;SDS011;44880;52.814;18.270;2023-12-20T15:28:22;12.10;;;4.60;;
59093;SDS011;44880;52.814;18.270;2023-12-20T15:30:53;14.30;;;5.20;;
59093;SDS011;44880;52.814;18.270;2023-12-20T15:35:55;13.20;;;4.70;;
59093;SDS011;44880;52.814;18.270;2023-12-20T15:40:57;16.20;;;5.40;;
59093;SDS011;44880;52.814;18.270;2023-12-20T15:43:30;13.20;;;5.90;;
59093;SDS011;44880;52.814;18.270;2023-12-20T15:46:01;13.60;;;6.20;;
59093;SDS011;44880;52.814;18.270;2023-12-20T15:48:33;13.10;;;5.50;;
59093;SDS011;44880;52.814;18.270;2023-12-20T15:51:05;14.00;;;6.20;;
59093;SDS011;44880;52.814;18.270;2023-12-20T15:53:38;13.70;;;5.10;;
59093;SDS011;44880;52.814;18.270;2023-12-20T15:56:10;11.90;;;5.10;;
59093;SDS011;44880;52.814;18.270;2023-12-20T15:58:41;12.30;;;5.30;;
59093;SDS011;44880;52.814;18.270;2023-12-20T16:01:13;10.70;;;4.90;;
59093;SDS011;44880;52.814;18.270;2023-12-20T16:03:45;12.20;;;4.60;;
59093;SDS011;44880;52.814;18.270;2023-12-20T16:06:17;12.10;;;4.80;;
59093;SDS011;44880;52.814;18.270;2023-12-20T16:08:50;11.40;;;5.50;;
59093;SDS011;44880;52.814;18.270;2023-12-20T16:11:21;13.30;;;5.00;;
59093;SDS011;44880;52.814;18.270;2023-12-20T16:13:53;14.90;;;4.90;;